sensor_id;sensor_type;location;lat;lon;timestamp;pressure;altitude;pressure_sealevel;temperature;humidity
9717;BME280;4897;43.570;27.832;2023-06-24T00:00:37;99090.28;;;19.44;100.00
9717;BME280;4897;43.570;27.832;2023-06-24T00:03:04;99102.44;;;19.48;100.00
9717;BME280;4897;43.570;27.832;2023-06-24T00:05:33;99094.41;;;19.40;100.00
9717;BME280;4897;43.570;27.832;2023-06-24T00:08:00;99084.28;;;19.34;100.00
9717;BME280;4897;43.570;27.832;2023-06-24T00:10:28;99103.44;;;19.47;100.00
9717;BME280;4897;43.570;27.832;2023-06-24T00:12:55;99096.25;;;19.39;100.00
9717;BME280;4897;43.570;27.832;2023-06-24T00:15:25;99010.69;;;18.78;100.00
9717;BME280;4897;43.570;27.832;2023-06-24T00:17:53;99084.00;;;19.43;100.00
9717;BME280;4897;43.570;27.832;2023-06-24T00:20:31;99077.94;;;19.41;100.00
9717;BME280;4897;43.570;27.832;2023-06-24T00:22:58;99083.06;;;19.36;100.00
9717;BME280;4897;43.570;27.832;2023-06-24T00:25:24;99010.69;;;18.93;100.00
9717;BME280;4897;43.570;27.832;2023-06-24T00:27:51;98855.47;;;17.97;100.00
9717;BME280;4897;43.570;27.832;2023-06-24T00:30:18;99066.28;;;19.33;100.00
9717;BME280;4897;43.570;27.832;2023-06-24T00:32:45;99073.44;;;19.34;100.00
9717;BME280;4897;43.570;27.832;2023-06-24T00:35:13;99074.06;;;19.21;100.00
9717;BME280;4897;43.570;27.832;2023-06-24T00:37:41;99072.03;;;19.23;100.00
9717;BME280;4897;43.570;27.832;2023-06-24T00:40:11;99070.13;;;19.24;100.00
9717;BME280;4897;43.570;27.832;2023-06-24T00:42:41;99061.88;;;19.17;100.00
9717;BME280;4897;43.570;27.832;2023-06-24T00:45:09;99063.94;;;19.15;100.00
9717;BME280;4897;43.570;27.832;2023-06-24T00:47:36;99057.81;;;19.21;100.00
9717;BME280;4897;43.570;27.832;2023-06-24T00:50:05;99064.16;;;19.13;100.00
9717;BME280;4897;43.570;27.832;2023-06-24T00:52:33;99063.59;;;19.03;100.00
9717;BME280;4897;43.570;27.832;2023-06-24T00:55:03;99043.59;;;18.90;100.00
9717;BME280;4897;43.570;27.832;2023-06-24T00:57:30;99068.63;;;18.92;100.00
9717;BME280;4897;43.570;27.832;2023-06-24T00:59:57;98990.88;;;18.41;100.00
9717;BME280;4897;43.570;27.832;2023-06-24T01:02:25;99055.53;;;18.81;100.00
9717;BME280;4897;43.570;27.832;2023-06-24T01:04:53;99048.16;;;18.75;100.00
9717;BME280;4897;43.570;27.832;2023-06-24T01:07:21;99039.53;;;18.71;100.00
9717;BME280;4897;43.570;27.832;2023-06-24T01:09:49;99036.09;;;18.63;100.00
9717;BME280;4897;43.570;27.832;2023-06-24T01:12:16;99046.06;;;18.62;100.00
9717;BME280;4897;43.570;27.832;2023-06-24T01:14:43;99034.00;;;18.50;100.00
9717;BME280;4897;43.570;27.832;2023-06-24T01:17:15;99019.00;;;18.40;100.00
9717;BME280;4897;43.570;27.832;2023-06-24T01:19:56;99030.78;;;18.47;100.00
9717;BME280;4897;43.570;27.832;2023-06-24T01:22:48;99031.19;;;18.44;100.00
9717;BME280;4897;43.570;27.832;2023-06-24T01:25:36;99035.34;;;18.46;100.00
9717;BME280;4897;43.570;27.832;2023-06-24T01:28:20;99022.53;;;18.40;100.00
9717;BME280;4897;43.570;27.832;2023-06-24T01:31:30;99025.06;;;18.42;100.00
9717;BME280;4897;43.570;27.832;2023-06-24T01:34:01;99012.94;;;18.38;100.00
9717;BME280;4897;43.570;27.832;2023-06-24T01:36:34;98996.38;;;18.32;100.00
9717;BME280;4897;43.570;27.832;2023-06-24T01:39:04;99020.66;;;18.41;100.00
9717;BME280;4897;43.570;27.832;2023-06-24T01:41:36;99008.94;;;18.25;100.00
9717;BME280;4897;43.570;27.832;2023-06-24T01:44:07;99025.84;;;18.27;100.00
9717;BME280;4897;43.570;27.832;2023-06-24T01:46:38;99024.38;;;18.25;100.00
9717;BME280;4897;43.570;27.832;2023-06-24T01:49:07;99030.59;;;18.25;100.00
9717;BME280;4897;43.570;27.832;2023-06-24T01:51:39;99031.06;;;18.14;100.00
9717;BME280;4897;43.570;27.832;2023-06-24T01:54:11;99025.44;;;18.16;100.00
9717;BME280;4897;43.570;27.832;2023-06-24T01:56:41;99032.38;;;18.18;100.00
9717;BME280;4897;43.570;27.832;2023-06-24T01:59:10;99011.97;;;18.08;100.00
9717;BME280;4897;43.570;27.832;2023-06-24T02:01:39;98970.81;;;17.75;100.00
9717;BME280;4897;43.570;27.832;2023-06-24T02:04:08;99029.34;;;18.13;100.00
9717;BME280;4897;43.570;27.832;2023-06-24T02:06:36;99038.13;;;18.15;100.00
9717;BME280;4897;43.570;27.832;2023-06-24T02:09:04;99029.72;;;18.10;100.00
9717;BME280;4897;43.570;27.832;2023-06-24T02:11:33;99017.94;;;18.03;100.00
9717;BME280;4897;43.570;27.832;2023-06-24T02:14:01;99031.41;;;18.11;100.00
9717;BME280;4897;43.570;27.832;2023-06-24T02:16:30;99035.50;;;18.07;100.00
9717;BME280;4897;43.570;27.832;2023-06-24T02:19:01;99044.53;;;18.00;100.00
9717;BME280;4897;43.570;27.832;2023-06-24T02:21:29;99044.69;;;17.98;100.00
9717;BME280;4897;43.570;27.832;2023-06-24T02:23:57;99046.91;;;17.95;100.00
9717;BME280;4897;43.570;27.832;2023-06-24T02:26:25;99044.00;;;17.96;100.00
9717;BME280;4897;43.570;27.832;2023-06-24T02:28:53;99037.66;;;17.89;100.00
9717;BME280;4897;43.570;27.832;2023-06-24T02:31:21;99036.94;;;17.95;100.00
9717;BME280;4897;43.570;27.832;2023-06-24T02:33:48;99035.63;;;17.91;100.00
9717;BME280;4897;43.570;27.832;2023-06-24T02:36:16;99053.50;;;17.92;100.00
9717;BME280;4897;43.570;27.832;2023-06-24T02:38:43;99055.56;;;17.90;100.00
9717;BME280;4897;43.570;27.832;2023-06-24T02:41:10;99053.50;;;17.92;100.00
9717;BME280;4897;43.570;27.832;2023-06-24T02:43:37;99066.81;;;18.02;100.00
9717;BME280;4897;43.570;27.832;2023-06-24T02:46:05;99076.31;;;17.98;100.00
9717;BME280;4897;43.570;27.832;2023-06-24T02:48:34;99066.63;;;18.03;100.00
9717;BME280;4897;43.570;27.832;2023-06-24T02:51:03;99081.97;;;18.11;100.00
9717;BME280;4897;43.570;27.832;2023-06-24T02:53:33;99079.97;;;18.05;100.00
9717;BME280;4897;43.570;27.832;2023-06-24T02:56:00;99086.97;;;18.22;100.00
9717;BME280;4897;43.570;27.832;2023-06-24T02:58:29;99073.50;;;18.14;100.00
9717;BME280;4897;43.570;27.832;2023-06-24T03:00:58;99071.94;;;18.19;100.00
9717;BME280;4897;43.570;27.832;2023-06-24T03:03:26;99079.97;;;18.27;100.00
9717;BME280;4897;43.570;27.832;2023-06-24T03:05:53;99085.41;;;18.27;100.00
9717;BME280;4897;43.570;27.832;2023-06-24T03:08:22;99077.59;;;18.32;100.00
9717;BME280;4897;43.570;27.832;2023-06-24T03:10:51;99084.31;;;18.36;100.00
9717;BME280;4897;43.570;27.832;2023-06-24T03:13:18;99080.22;;;18.41;100.00
9717;BME280;4897;43.570;27.832;2023-06-24T03:15:45;99060.63;;;18.38;100.00
9717;BME280;4897;43.570;27.832;2023-06-24T03:18:12;99057.44;;;18.35;100.00
9717;BME280;4897;43.570;27.832;2023-06-24T03:20:39;99071.06;;;18.50;100.00
9717;BME280;4897;43.570;27.832;2023-06-24T03:23:06;99088.19;;;18.65;100.00
9717;BME280;4897;43.570;27.832;2023-06-24T03:25:33;99092.50;;;18.74;100.00
9717;BME280;4897;43.570;27.832;2023-06-24T03:28:01;99081.41;;;18.83;100.00
9717;BME280;4897;43.570;27.832;2023-06-24T03:30:29;99078.72;;;18.98;100.00
9717;BME280;4897;43.570;27.832;2023-06-24T03:32:56;99083.09;;;18.99;100.00
9717;BME280;4897;43.570;27.832;2023-06-24T03:35:23;99095.09;;;19.04;100.00
9717;BME280;4897;43.570;27.832;2023-06-24T03:37:50;99093.50;;;19.10;100.00
9717;BME280;4897;43.570;27.832;2023-06-24T03:40:17;99089.59;;;19.27;100.00
9717;BME280;4897;43.570;27.832;2023-06-24T03:42:44;99077.34;;;19.31;100.00
9717;BME280;4897;43.570;27.832;2023-06-24T03:45:12;99073.16;;;19.43;100.00
9717;BME280;4897;43.570;27.832;2023-06-24T03:47:39;99082.31;;;19.42;100.00
9717;BME280;4897;43.570;27.832;2023-06-24T03:50:07;99071.41;;;19.36;100.00
9717;BME280;4897;43.570;27.832;2023-06-24T03:52:34;99087.53;;;19.58;100.00
9717;BME280;4897;43.570;27.832;2023-06-24T03:55:00;99072.47;;;19.70;100.00
9717;BME280;4897;43.570;27.832;2023-06-24T03:57:29;99086.19;;;19.83;100.00
9717;BME280;4897;43.570;27.832;2023-06-24T03:59:56;99076.63;;;19.87;100.00
9717;BME280;4897;43.570;27.832;2023-06-24T04:02:25;99099.41;;;20.08;100.00
9717;BME280;4897;43.570;27.832;2023-06-24T04:04:54;99096.47;;;20.24;100.00
9717;BME280;4897;43.570;27.832;2023-06-24T04:07:21;99089.63;;;20.28;100.00
9717;BME280;4897;43.570;27.832;2023-06-24T04:09:54;99097.72;;;20.42;100.00
9717;BME280;4897;43.570;27.832;2023-06-24T04:12:21;99087.19;;;20.54;100.00
9717;BME280;4897;43.570;27.832;2023-06-24T04:14:48;99097.97;;;20.68;100.00
9717;BME280;4897;43.570;27.832;2023-06-24T04:17:15;99104.16;;;20.84;100.00
9717;BME280;4897;43.570;27.832;2023-06-24T04:19:43;99105.75;;;20.99;100.00
9717;BME280;4897;43.570;27.832;2023-06-24T04:22:10;99108.41;;;21.14;100.00
9717;BME280;4897;43.570;27.832;2023-06-24T04:24:37;99100.44;;;21.12;100.00
9717;BME280;4897;43.570;27.832;2023-06-24T04:27:07;99108.06;;;21.23;100.00
9717;BME280;4897;43.570;27.832;2023-06-24T04:29:34;99107.97;;;21.44;100.00
9717;BME280;4897;43.570;27.832;2023-06-24T04:32:01;99117.22;;;21.50;100.00
9717;BME280;4897;43.570;27.832;2023-06-24T04:34:28;99096.69;;;21.47;100.00
9717;BME280;4897;43.570;27.832;2023-06-24T04:36:57;99113.31;;;21.66;100.00
9717;BME280;4897;43.570;27.832;2023-06-24T04:39:24;99128.31;;;21.83;100.00
9717;BME280;4897;43.570;27.832;2023-06-24T04:41:50;99109.91;;;21.91;100.00
9717;BME280;4897;43.570;27.832;2023-06-24T04:44:17;99109.75;;;22.06;100.00
9717;BME280;4897;43.570;27.832;2023-06-24T04:46:45;99127.41;;;22.23;100.00
9717;BME280;4897;43.570;27.832;2023-06-24T04:49:12;99133.31;;;22.33;100.00
9717;BME280;4897;43.570;27.832;2023-06-24T04:51:40;99128.31;;;22.50;100.00
